< < Back
Terminal Aerodrome Forecast


Current Version              Previous Versions:   1  2  3  4  5  6  7  8  9  

Terminal Aerodrome Forecast

434
FTUS42 KFFC 272332
TAFAHN
TAF
KAHN 272332Z 2800/2824 VRB03KT P6SM FEW050 SCT120
     FM280100 00000KT P6SM SCT250
     FM281500 34003KT P6SM FEW040
     FM281800 32006KT P6SM SCT050 PROB30 2820/2824 -SHRA BKN050=

Latest METAR

186
SAUS70 KWBC 280100
MTRAHN
METAR KAHN 280051Z AUTO VRB04KT 10SM CLR 30/22 A2996 RMK AO2 SLP135
T03000217


USA.gov is the U.S. government's official web portal to all federal, state and local government web resources and services.